sensor_id;sensor_type;location;lat;lon;timestamp;temperature;humidity
11320;DHT22;5715;48.234;14.320;2023-02-01T00:00:26;3.20;99.90
11320;DHT22;5715;48.234;14.320;2023-02-01T00:03:13;3.20;99.90
11320;DHT22;5715;48.234;14.320;2023-02-01T00:06:01;3.20;99.90
11320;DHT22;5715;48.234;14.320;2023-02-01T00:08:52;3.20;99.90
11320;DHT22;5715;48.234;14.320;2023-02-01T00:11:41;3.20;99.90
11320;DHT22;5715;48.234;14.320;2023-02-01T00:14:29;3.20;99.90
11320;DHT22;5715;48.234;14.320;2023-02-01T00:17:16;3.20;99.90
11320;DHT22;5715;48.234;14.320;2023-02-01T00:20:05;3.20;99.90
11320;DHT22;5715;48.234;14.320;2023-02-01T00:22:53;3.20;99.90
11320;DHT22;5715;48.234;14.320;2023-02-01T00:25:40;3.20;99.90
11320;DHT22;5715;48.234;14.320;2023-02-01T00:28:28;3.20;99.90
11320;DHT22;5715;48.234;14.320;2023-02-01T00:31:15;3.20;99.90
11320;DHT22;5715;48.234;14.320;2023-02-01T00:34:03;3.20;99.90
11320;DHT22;5715;48.234;14.320;2023-02-01T00:36:51;3.20;99.90
11320;DHT22;5715;48.234;14.320;2023-02-01T00:39:39;3.20;99.90
11320;DHT22;5715;48.234;14.320;2023-02-01T00:42:26;3.30;99.90
11320;DHT22;5715;48.234;14.320;2023-02-01T00:45:14;3.30;99.90
11320;DHT22;5715;48.234;14.320;2023-02-01T00:48:01;3.30;99.90
11320;DHT22;5715;48.234;14.320;2023-02-01T00:50:49;3.40;99.90
11320;DHT22;5715;48.234;14.320;2023-02-01T00:53:37;3.40;99.90
11320;DHT22;5715;48.234;14.320;2023-02-01T00:56:24;3.50;99.90
11320;DHT22;5715;48.234;14.320;2023-02-01T00:59:14;3.50;99.90
11320;DHT22;5715;48.234;14.320;2023-02-01T01:02:02;3.60;99.90
11320;DHT22;5715;48.234;14.320;2023-02-01T01:04:49;3.60;99.90
11320;DHT22;5715;48.234;14.320;2023-02-01T01:07:37;3.60;99.90
11320;DHT22;5715;48.234;14.320;2023-02-01T01:10:24;3.60;99.90
11320;DHT22;5715;48.234;14.320;2023-02-01T01:13:12;3.60;99.90
11320;DHT22;5715;48.234;14.320;2023-02-01T01:16:01;3.60;99.90
11320;DHT22;5715;48.234;14.320;2023-02-01T01:18:50;3.60;99.90
11320;DHT22;5715;48.234;14.320;2023-02-01T01:21:38;3.60;99.90
11320;DHT22;5715;48.234;14.320;2023-02-01T01:24:25;3.60;99.90
11320;DHT22;5715;48.234;14.320;2023-02-01T01:27:13;3.50;99.90
11320;DHT22;5715;48.234;14.320;2023-02-01T01:30:01;3.60;99.90
11320;DHT22;5715;48.234;14.320;2023-02-01T01:32:48;3.60;99.90
11320;DHT22;5715;48.234;14.320;2023-02-01T01:35:36;3.60;99.90
11320;DHT22;5715;48.234;14.320;2023-02-01T01:38:24;3.60;99.90
11320;DHT22;5715;48.234;14.320;2023-02-01T01:41:20;3.60;99.90
11320;DHT22;5715;48.234;14.320;2023-02-01T01:48:25;3.60;99.90
11320;DHT22;5715;48.234;14.320;2023-02-01T01:51:18;3.60;99.90
11320;DHT22;5715;48.234;14.320;2023-02-01T01:54:18;3.70;99.90
11320;DHT22;5715;48.234;14.320;2023-02-01T01:57:16;3.70;99.90
11320;DHT22;5715;48.234;14.320;2023-02-01T02:00:14;3.70;99.90
11320;DHT22;5715;48.234;14.320;2023-02-01T02:03:10;3.70;99.90
11320;DHT22;5715;48.234;14.320;2023-02-01T02:06:03;3.70;99.90
11320;DHT22;5715;48.234;14.320;2023-02-01T02:09:00;3.80;99.90
11320;DHT22;5715;48.234;14.320;2023-02-01T02:11:48;3.80;99.90
11320;DHT22;5715;48.234;14.320;2023-02-01T02:14:36;3.80;99.90
11320;DHT22;5715;48.234;14.320;2023-02-01T02:17:32;3.80;99.90
11320;DHT22;5715;48.234;14.320;2023-02-01T02:20:36;3.90;99.90
11320;DHT22;5715;48.234;14.320;2023-02-01T02:23:38;3.90;99.90
11320;DHT22;5715;48.234;14.320;2023-02-01T02:26:55;3.90;99.90
11320;DHT22;5715;48.234;14.320;2023-02-01T02:30:19;3.90;99.90
11320;DHT22;5715;48.234;14.320;2023-02-01T02:43:23;4.00;99.90
11320;DHT22;5715;48.234;14.320;2023-02-01T02:46:39;4.00;99.90
11320;DHT22;5715;48.234;14.320;2023-02-01T02:49:52;4.00;99.90
11320;DHT22;5715;48.234;14.320;2023-02-01T02:53:10;4.00;99.90
11320;DHT22;5715;48.234;14.320;2023-02-01T02:56:23;4.00;99.90
11320;DHT22;5715;48.234;14.320;2023-02-01T02:59:31;4.00;99.90
11320;DHT22;5715;48.234;14.320;2023-02-01T03:02:40;4.10;99.90
11320;DHT22;5715;48.234;14.320;2023-02-01T03:05:48;4.10;99.90
11320;DHT22;5715;48.234;14.320;2023-02-01T03:08:37;4.00;99.90
11320;DHT22;5715;48.234;14.320;2023-02-01T03:11:25;4.10;99.90
11320;DHT22;5715;48.234;14.320;2023-02-01T03:14:37;4.10;99.90
11320;DHT22;5715;48.234;14.320;2023-02-01T03:17:33;4.10;99.90
11320;DHT22;5715;48.234;14.320;2023-02-01T03:20:26;4.10;99.90
11320;DHT22;5715;48.234;14.320;2023-02-01T03:23:16;4.10;99.90
11320;DHT22;5715;48.234;14.320;2023-02-01T03:26:10;4.10;99.90
11320;DHT22;5715;48.234;14.320;2023-02-01T03:29:13;4.10;99.90
11320;DHT22;5715;48.234;14.320;2023-02-01T03:32:04;4.20;99.90
11320;DHT22;5715;48.234;14.320;2023-02-01T03:34:53;4.20;99.90
11320;DHT22;5715;48.234;14.320;2023-02-01T03:37:41;4.20;99.90
11320;DHT22;5715;48.234;14.320;2023-02-01T03:40:32;4.20;99.90
11320;DHT22;5715;48.234;14.320;2023-02-01T03:43:25;4.20;99.90
11320;DHT22;5715;48.234;14.320;2023-02-01T03:46:21;4.20;99.90
11320;DHT22;5715;48.234;14.320;2023-02-01T03:49:23;4.20;99.90
11320;DHT22;5715;48.234;14.320;2023-02-01T03:52:28;4.20;99.90
11320;DHT22;5715;48.234;14.320;2023-02-01T03:55:22;4.20;99.90
11320;DHT22;5715;48.234;14.320;2023-02-01T03:58:18;4.30;99.90
11320;DHT22;5715;48.234;14.320;2023-02-01T04:01:07;4.30;99.90
11320;DHT22;5715;48.234;14.320;2023-02-01T04:03:56;4.30;99.90
11320;DHT22;5715;48.234;14.320;2023-02-01T04:06:48;4.30;99.90
11320;DHT22;5715;48.234;14.320;2023-02-01T04:09:36;4.30;99.90
11320;DHT22;5715;48.234;14.320;2023-02-01T04:12:24;4.30;99.90
11320;DHT22;5715;48.234;14.320;2023-02-01T04:15:11;4.40;99.90
11320;DHT22;5715;48.234;14.320;2023-02-01T04:17:59;4.40;99.90
11320;DHT22;5715;48.234;14.320;2023-02-01T04:20:46;4.40;99.90
11320;DHT22;5715;48.234;14.320;2023-02-01T04:23:34;4.40;99.90
11320;DHT22;5715;48.234;14.320;2023-02-01T04:26:23;4.40;99.90
11320;DHT22;5715;48.234;14.320;2023-02-01T04:29:11;4.40;99.90
11320;DHT22;5715;48.234;14.320;2023-02-01T04:31:59;4.40;99.90
11320;DHT22;5715;48.234;14.320;2023-02-01T04:34:46;4.40;99.90
11320;DHT22;5715;48.234;14.320;2023-02-01T04:37:34;4.40;99.90
11320;DHT22;5715;48.234;14.320;2023-02-01T04:40:22;4.40;99.90
11320;DHT22;5715;48.234;14.320;2023-02-01T04:43:10;4.40;99.90
11320;DHT22;5715;48.234;14.320;2023-02-01T04:45:58;4.50;99.90
11320;DHT22;5715;48.234;14.320;2023-02-01T04:48:45;4.40;99.90
11320;DHT22;5715;48.234;14.320;2023-02-01T04:51:33;4.40;99.90
11320;DHT22;5715;48.234;14.320;2023-02-01T04:54:20;4.40;99.90
11320;DHT22;5715;48.234;14.320;2023-02-01T04:57:08;4.40;99.90
11320;DHT22;5715;48.234;14.320;2023-02-01T04:59:55;4.40;99.90
11320;DHT22;5715;48.234;14.320;2023-02-01T05:02:43;4.40;99.90
11320;DHT22;5715;48.234;14.320;2023-02-01T05:05:30;4.40;99.90
11320;DHT22;5715;48.234;14.320;2023-02-01T05:08:18;4.40;99.90
11320;DHT22;5715;48.234;14.320;2023-02-01T05:11:06;4.40;99.90
11320;DHT22;5715;48.234;14.320;2023-02-01T05:13:53;4.40;99.90
11320;DHT22;5715;48.234;14.320;2023-02-01T05:16:41;4.40;99.90
11320;DHT22;5715;48.234;14.320;2023-02-01T05:19:28;4.40;99.90
11320;DHT22;5715;48.234;14.320;2023-02-01T05:22:16;4.50;99.90
11320;DHT22;5715;48.234;14.320;2023-02-01T05:25:04;4.50;99.90
11320;DHT22;5715;48.234;14.320;2023-02-01T05:27:54;4.40;99.90
11320;DHT22;5715;48.234;14.320;2023-02-01T05:30:42;4.40;99.90
11320;DHT22;5715;48.234;14.320;2023-02-01T05:33:29;4.50;99.90
11320;DHT22;5715;48.234;14.320;2023-02-01T05:36:17;4.50;99.90
11320;DHT22;5715;48.234;14.320;2023-02-01T05:39:05;4.50;99.90
11320;DHT22;5715;48.234;14.320;2023-02-01T05:41:52;4.40;99.90
11320;DHT22;5715;48.234;14.320;2023-02-01T05:44:40;4.50;99.90
11320;DHT22;5715;48.234;14.320;2023-02-01T05:47:27;4.50;99.90
11320;DHT22;5715;48.234;14.320;2023-02-01T05:50:16;4.40;99.90
11320;DHT22;5715;48.234;14.320;2023-02-01T05:53:04;4.50;99.90
11320;DHT22;5715;48.234;14.320;2023-02-01T05:55:52;4.50;99.90
11320;DHT22;5715;48.234;14.320;2023-02-01T05:58:39;4.50;99.90
11320;DHT22;5715;48.234;14.320;2023-02-01T06:01:27;4.50;99.90
11320;DHT22;5715;48.234;14.320;2023-02-01T06:04:14;4.50;99.90
11320;DHT22;5715;48.234;14.320;2023-02-01T06:07:02;4.50;99.90
11320;DHT22;5715;48.234;14.320;2023-02-01T06:09:50;4.50;99.90
11320;DHT22;5715;48.234;14.320;2023-02-01T06:12:37;4.60;99.90
11320;DHT22;5715;48.234;14.320;2023-02-01T06:15:25;4.60;99.90
11320;DHT22;5715;48.234;14.320;2023-02-01T06:18:12;4.60;99.90
11320;DHT22;5715;48.234;14.320;2023-02-01T06:21:02;4.60;99.90
11320;DHT22;5715;48.234;14.320;2023-02-01T06:23:51;4.60;99.90
11320;DHT22;5715;48.234;14.320;2023-02-01T06:26:39;4.60;99.90
11320;DHT22;5715;48.234;14.320;2023-02-01T06:29:27;4.60;99.90
11320;DHT22;5715;48.234;14.320;2023-02-01T06:32:15;4.60;99.90
11320;DHT22;5715;48.234;14.320;2023-02-01T06:35:04;4.60;99.90
11320;DHT22;5715;48.234;14.320;2023-02-01T06:37:52;4.60;99.90
11320;DHT22;5715;48.234;14.320;2023-02-01T06:40:40;4.70;99.90
11320;DHT22;5715;48.234;14.320;2023-02-01T06:43:31;4.70;99.90
11320;DHT22;5715;48.234;14.320;2023-02-01T06:46:22;4.70;99.90
11320;DHT22;5715;48.234;14.320;2023-02-01T06:49:09;4.70;99.90
11320;DHT22;5715;48.234;14.320;2023-02-01T06:51:57;4.70;99.90
11320;DHT22;5715;48.234;14.320;2023-02-01T06:54:47;4.70;99.90
11320;DHT22;5715;48.234;14.320;2023-02-01T06:57:34;4.80;99.90
11320;DHT22;5715;48.234;14.320;2023-02-01T07:00:23;4.80;99.90
11320;DHT22;5715;48.234;14.320;2023-02-01T07:03:11;4.80;99.90
11320;DHT22;5715;48.234;14.320;2023-02-01T07:05:59;4.80;99.90
11320;DHT22;5715;48.234;14.320;2023-02-01T07:08:48;4.80;99.90
11320;DHT22;5715;48.234;14.320;2023-02-01T07:11:36;4.80;99.90
11320;DHT22;5715;48.234;14.320;2023-02-01T07:14:26;4.70;99.90
11320;DHT22;5715;48.234;14.320;2023-02-01T07:17:14;4.70;99.90
11320;DHT22;5715;48.234;14.320;2023-02-01T07:20:01;4.80;99.90
11320;DHT22;5715;48.234;14.320;2023-02-01T07:22:54;4.70;99.90
11320;DHT22;5715;48.234;14.320;2023-02-01T07:25:45;4.70;99.90
11320;DHT22;5715;48.234;14.320;2023-02-01T07:28:35;4.80;99.90
11320;DHT22;5715;48.234;14.320;2023-02-01T07:31:23;4.70;99.90
11320;DHT22;5715;48.234;14.320;2023-02-01T07:34:13;4.70;99.90
11320;DHT22;5715;48.234;14.320;2023-02-01T07:37:01;4.70;99.90
11320;DHT22;5715;48.234;14.320;2023-02-01T07:39:48;4.80;99.90
11320;DHT22;5715;48.234;14.320;2023-02-01T07:42:36;4.80;99.90
11320;DHT22;5715;48.234;14.320;2023-02-01T07:45:24;4.80;99.90
11320;DHT22;5715;48.234;14.320;2023-02-01T07:48:11;4.80;99.90
11320;DHT22;5715;48.234;14.320;2023-02-01T07:51:05;4.90;99.90
11320;DHT22;5715;48.234;14.320;2023-02-01T07:53:55;4.90;99.90
11320;DHT22;5715;48.234;14.320;2023-02-01T07:56:43;4.80;99.90
11320;DHT22;5715;48.234;14.320;2023-02-01T07:59:30;4.80;99.90
11320;DHT22;5715;48.234;14.320;2023-02-01T08:02:18;4.80;99.90
11320;DHT22;5715;48.234;14.320;2023-02-01T08:05:06;4.80;99.90
11320;DHT22;5715;48.234;14.320;2023-02-01T08:07:54;4.80;99.90
11320;DHT22;5715;48.234;14.320;2023-02-01T08:10:41;4.80;99.90
11320;DHT22;5715;48.234;14.320;2023-02-01T08:13:29;4.80;99.90
11320;DHT22;5715;48.234;14.320;2023-02-01T08:16:19;4.80;99.90
11320;DHT22;5715;48.234;14.320;2023-02-01T08:19:07;4.80;99.90
11320;DHT22;5715;48.234;14.320;2023-02-01T08:21:54;4.80;99.90
11320;DHT22;5715;48.234;14.320;2023-02-01T08:24:42;4.80;99.90
11320;DHT22;5715;48.234;14.320;2023-02-01T08:27:32;4.70;99.90
11320;DHT22;5715;48.234;14.320;2023-02-01T08:30:21;4.70;99.90
11320;DHT22;5715;48.234;14.320;2023-02-01T08:33:09;4.70;99.90
11320;DHT22;5715;48.234;14.320;2023-02-01T08:36:00;4.70;99.90
11320;DHT22;5715;48.234;14.320;2023-02-01T08:38:49;4.70;99.90
11320;DHT22;5715;48.234;14.320;2023-02-01T08:41:38;4.70;99.90
11320;DHT22;5715;48.234;14.320;2023-02-01T08:44:27;4.70;99.90
11320;DHT22;5715;48.234;14.320;2023-02-01T08:47:14;4.70;99.90
11320;DHT22;5715;48.234;14.320;2023-02-01T08:50:02;4.80;99.90
11320;DHT22;5715;48.234;14.320;2023-02-01T08:52:50;4.80;99.90
11320;DHT22;5715;48.234;14.320;2023-02-01T08:55:38;4.80;99.90
11320;DHT22;5715;48.234;14.320;2023-02-01T08:58:25;4.80;99.90
11320;DHT22;5715;48.234;14.320;2023-02-01T09:01:15;4.80;99.90
11320;DHT22;5715;48.234;14.320;2023-02-01T09:04:04;4.90;99.90
11320;DHT22;5715;48.234;14.320;2023-02-01T09:06:52;5.00;99.90
11320;DHT22;5715;48.234;14.320;2023-02-01T09:09:42;5.00;99.90
11320;DHT22;5715;48.234;14.320;2023-02-01T09:12:33;5.10;99.90
11320;DHT22;5715;48.234;14.320;2023-02-01T09:15:21;5.20;99.90
11320;DHT22;5715;48.234;14.320;2023-02-01T09:18:09;5.30;99.90
11320;DHT22;5715;48.234;14.320;2023-02-01T09:20:56;5.30;99.90
11320;DHT22;5715;48.234;14.320;2023-02-01T09:23:44;5.30;99.90
11320;DHT22;5715;48.234;14.320;2023-02-01T09:26:32;5.30;99.90
11320;DHT22;5715;48.234;14.320;2023-02-01T09:29:20;5.30;99.90
11320;DHT22;5715;48.234;14.320;2023-02-01T09:32:07;5.20;99.90
11320;DHT22;5715;48.234;14.320;2023-02-01T09:34:55;5.20;99.90
11320;DHT22;5715;48.234;14.320;2023-02-01T09:37:42;5.20;99.90
11320;DHT22;5715;48.234;14.320;2023-02-01T09:40:30;5.20;99.90
11320;DHT22;5715;48.234;14.320;2023-02-01T09:43:36;5.20;99.90
11320;DHT22;5715;48.234;14.320;2023-02-01T09:46:33;5.30;99.90
11320;DHT22;5715;48.234;14.320;2023-02-01T09:49:28;5.30;99.90
11320;DHT22;5715;48.234;14.320;2023-02-01T09:52:43;5.40;99.90
11320;DHT22;5715;48.234;14.320;2023-02-01T09:58:41;5.50;99.90
11320;DHT22;5715;48.234;14.320;2023-02-01T10:01:31;5.50;99.90
11320;DHT22;5715;48.234;14.320;2023-02-01T10:04:19;5.60;99.90
11320;DHT22;5715;48.234;14.320;2023-02-01T10:10:49;5.60;99.90
11320;DHT22;5715;48.234;14.320;2023-02-01T10:16:46;5.60;99.90
11320;DHT22;5715;48.234;14.320;2023-02-01T10:19:55;5.60;99.90
11320;DHT22;5715;48.234;14.320;2023-02-01T10:26:23;5.80;99.90
11320;DHT22;5715;48.234;14.320;2023-02-01T10:29:19;5.80;99.90
11320;DHT22;5715;48.234;14.320;2023-02-01T10:32:17;5.80;99.90
11320;DHT22;5715;48.234;14.320;2023-02-01T10:35:16;5.80;99.90
11320;DHT22;5715;48.234;14.320;2023-02-01T10:38:29;5.70;99.90
11320;DHT22;5715;48.234;14.320;2023-02-01T10:41:21;5.60;99.90
11320;DHT22;5715;48.234;14.320;2023-02-01T10:44:16;5.50;99.90
11320;DHT22;5715;48.234;14.320;2023-02-01T10:47:11;5.50;99.90
11320;DHT22;5715;48.234;14.320;2023-02-01T10:56:58;5.00;99.90
11320;DHT22;5715;48.234;14.320;2023-02-01T10:59:47;4.70;99.90
11320;DHT22;5715;48.234;14.320;2023-02-01T11:02:35;4.60;99.90
11320;DHT22;5715;48.234;14.320;2023-02-01T11:05:24;4.40;99.90
11320;DHT22;5715;48.234;14.320;2023-02-01T11:08:15;4.30;99.90
11320;DHT22;5715;48.234;14.320;2023-02-01T11:11:06;4.20;99.90
11320;DHT22;5715;48.234;14.320;2023-02-01T11:14:35;4.20;99.90
11320;DHT22;5715;48.234;14.320;2023-02-01T11:17:28;4.10;99.90
11320;DHT22;5715;48.234;14.320;2023-02-01T11:20:37;4.00;99.90
11320;DHT22;5715;48.234;14.320;2023-02-01T11:23:31;3.90;99.90
11320;DHT22;5715;48.234;14.320;2023-02-01T11:26:25;3.70;99.90
11320;DHT22;5715;48.234;14.320;2023-02-01T11:29:17;3.60;99.90
11320;DHT22;5715;48.234;14.320;2023-02-01T11:32:10;3.60;99.90
11320;DHT22;5715;48.234;14.320;2023-02-01T11:35:05;3.60;99.90
11320;DHT22;5715;48.234;14.320;2023-02-01T11:37:58;3.60;99.90
11320;DHT22;5715;48.234;14.320;2023-02-01T11:40:47;3.60;99.90
11320;DHT22;5715;48.234;14.320;2023-02-01T11:43:35;3.70;99.90
11320;DHT22;5715;48.234;14.320;2023-02-01T11:46:28;3.90;99.90
11320;DHT22;5715;48.234;14.320;2023-02-01T11:49:26;4.10;99.90
11320;DHT22;5715;48.234;14.320;2023-02-01T11:56:30;4.60;99.90
11320;DHT22;5715;48.234;14.320;2023-02-01T11:59:13;4.90;99.90
11320;DHT22;5715;48.234;14.320;2023-02-01T12:02:35;4.90;99.90
11320;DHT22;5715;48.234;14.320;2023-02-01T12:12:23;4.70;99.90
11320;DHT22;5715;48.234;14.320;2023-02-01T12:18:38;4.70;99.90
11320;DHT22;5715;48.234;14.320;2023-02-01T12:38:18;4.70;99.90
11320;DHT22;5715;48.234;14.320;2023-02-01T12:41:43;4.80;99.90
11320;DHT22;5715;48.234;14.320;2023-02-01T12:44:52;4.90;99.90
11320;DHT22;5715;48.234;14.320;2023-02-01T12:51:15;5.20;99.90
11320;DHT22;5715;48.234;14.320;2023-02-01T12:57:39;5.90;99.90
11320;DHT22;5715;48.234;14.320;2023-02-01T13:07:09;6.40;99.90
11320;DHT22;5715;48.234;14.320;2023-02-01T13:13:31;6.50;99.90
11320;DHT22;5715;48.234;14.320;2023-02-01T13:16:34;6.50;99.90
11320;DHT22;5715;48.234;14.320;2023-02-01T13:22:59;6.40;99.90
11320;DHT22;5715;48.234;14.320;2023-02-01T13:25:52;6.30;99.90
11320;DHT22;5715;48.234;14.320;2023-02-01T13:28:47;6.10;99.90
11320;DHT22;5715;48.234;14.320;2023-02-01T13:41:57;4.60;99.90
11320;DHT22;5715;48.234;14.320;2023-02-01T13:45:36;4.50;99.90
11320;DHT22;5715;48.234;14.320;2023-02-01T13:48:04;4.50;99.90
11320;DHT22;5715;48.234;14.320;2023-02-01T13:50:56;4.50;99.90
11320;DHT22;5715;48.234;14.320;2023-02-01T13:53:47;4.60;99.90
11320;DHT22;5715;48.234;14.320;2023-02-01T13:56:41;4.60;99.90
11320;DHT22;5715;48.234;14.320;2023-02-01T14:08:40;4.90;99.90
11320;DHT22;5715;48.234;14.320;2023-02-01T14:11:58;5.00;99.90
11320;DHT22;5715;48.234;14.320;2023-02-01T14:15:24;5.10;99.90
11320;DHT22;5715;48.234;14.320;2023-02-01T14:21:31;5.20;99.90
11320;DHT22;5715;48.234;14.320;2023-02-01T14:24:36;5.10;99.90
11320;DHT22;5715;48.234;14.320;2023-02-01T14:27:29;5.10;99.90
11320;DHT22;5715;48.234;14.320;2023-02-01T14:30:23;5.10;99.90
11320;DHT22;5715;48.234;14.320;2023-02-01T14:33:18;5.10;99.90
11320;DHT22;5715;48.234;14.320;2023-02-01T14:36:14;5.10;99.90
11320;DHT22;5715;48.234;14.320;2023-02-01T14:39:02;5.00;99.90
11320;DHT22;5715;48.234;14.320;2023-02-01T14:41:57;5.00;99.90
11320;DHT22;5715;48.234;14.320;2023-02-01T14:44:49;5.00;99.90
11320;DHT22;5715;48.234;14.320;2023-02-01T14:47:47;5.00;99.90
11320;DHT22;5715;48.234;14.320;2023-02-01T14:50:42;5.00;99.90
11320;DHT22;5715;48.234;14.320;2023-02-01T14:53:34;5.00;99.90
11320;DHT22;5715;48.234;14.320;2023-02-01T14:56:25;5.10;99.90
11320;DHT22;5715;48.234;14.320;2023-02-01T14:59:15;5.10;99.90
11320;DHT22;5715;48.234;14.320;2023-02-01T15:02:21;5.10;99.90
11320;DHT22;5715;48.234;14.320;2023-02-01T15:05:35;5.10;99.90
11320;DHT22;5715;48.234;14.320;2023-02-01T15:08:27;5.10;99.90
11320;DHT22;5715;48.234;14.320;2023-02-01T15:11:17;5.10;99.90
11320;DHT22;5715;48.234;14.320;2023-02-01T15:14:13;5.10;99.90
11320;DHT22;5715;48.234;14.320;2023-02-01T15:17:01;5.20;99.90
11320;DHT22;5715;48.234;14.320;2023-02-01T15:19:55;5.20;99.90
11320;DHT22;5715;48.234;14.320;2023-02-01T15:23:05;5.30;99.90
11320;DHT22;5715;48.234;14.320;2023-02-01T15:26:02;5.30;99.90
11320;DHT22;5715;48.234;14.320;2023-02-01T15:28:50;5.40;99.90
11320;DHT22;5715;48.234;14.320;2023-02-01T15:34:48;5.50;99.90
11320;DHT22;5715;48.234;14.320;2023-02-01T15:37:37;5.60;99.90
11320;DHT22;5715;48.234;14.320;2023-02-01T15:40:24;5.60;99.90
11320;DHT22;5715;48.234;14.320;2023-02-01T15:43:12;5.60;99.90
11320;DHT22;5715;48.234;14.320;2023-02-01T15:46:02;5.60;99.90
11320;DHT22;5715;48.234;14.320;2023-02-01T15:48:54;5.60;99.90
11320;DHT22;5715;48.234;14.320;2023-02-01T15:51:44;5.70;99.90
11320;DHT22;5715;48.234;14.320;2023-02-01T15:54:45;5.60;99.90
11320;DHT22;5715;48.234;14.320;2023-02-01T15:57:38;5.70;99.90
11320;DHT22;5715;48.234;14.320;2023-02-01T16:00:31;5.70;99.90
11320;DHT22;5715;48.234;14.320;2023-02-01T16:06:32;5.60;99.90
11320;DHT22;5715;48.234;14.320;2023-02-01T16:09:35;5.60;99.90
11320;DHT22;5715;48.234;14.320;2023-02-01T16:12:32;5.60;99.90
11320;DHT22;5715;48.234;14.320;2023-02-01T16:15:25;5.60;99.90
11320;DHT22;5715;48.234;14.320;2023-02-01T16:18:16;5.50;99.90
11320;DHT22;5715;48.234;14.320;2023-02-01T16:21:05;5.50;99.90
11320;DHT22;5715;48.234;14.320;2023-02-01T16:23:54;5.50;99.90
11320;DHT22;5715;48.234;14.320;2023-02-01T16:26:42;5.40;99.90
11320;DHT22;5715;48.234;14.320;2023-02-01T16:29:30;5.30;99.90
11320;DHT22;5715;48.234;14.320;2023-02-01T16:32:20;5.30;99.90
11320;DHT22;5715;48.234;14.320;2023-02-01T16:35:24;5.20;99.90
11320;DHT22;5715;48.234;14.320;2023-02-01T16:38:19;5.20;99.90
11320;DHT22;5715;48.234;14.320;2023-02-01T16:41:12;5.10;99.90
11320;DHT22;5715;48.234;14.320;2023-02-01T16:44:01;5.10;99.90
11320;DHT22;5715;48.234;14.320;2023-02-01T16:46:49;5.20;99.90
11320;DHT22;5715;48.234;14.320;2023-02-01T16:49:37;5.30;99.90
11320;DHT22;5715;48.234;14.320;2023-02-01T16:52:26;5.40;99.90
11320;DHT22;5715;48.234;14.320;2023-02-01T16:55:16;5.40;99.90
11320;DHT22;5715;48.234;14.320;2023-02-01T16:58:04;5.40;99.90
11320;DHT22;5715;48.234;14.320;2023-02-01T17:00:52;5.40;99.90
11320;DHT22;5715;48.234;14.320;2023-02-01T17:03:41;5.40;99.90
11320;DHT22;5715;48.234;14.320;2023-02-01T17:06:31;5.50;99.90
11320;DHT22;5715;48.234;14.320;2023-02-01T17:09:24;5.50;99.90
11320;DHT22;5715;48.234;14.320;2023-02-01T17:12:22;5.60;99.90
11320;DHT22;5715;48.234;14.320;2023-02-01T17:15:17;5.60;99.90
11320;DHT22;5715;48.234;14.320;2023-02-01T17:18:05;5.60;99.90
11320;DHT22;5715;48.234;14.320;2023-02-01T17:20:56;5.60;99.90
11320;DHT22;5715;48.234;14.320;2023-02-01T17:23:47;5.70;99.90
11320;DHT22;5715;48.234;14.320;2023-02-01T17:26:35;5.70;99.90
11320;DHT22;5715;48.234;14.320;2023-02-01T17:29:24;5.70;99.90
11320;DHT22;5715;48.234;14.320;2023-02-01T17:32:23;5.70;99.90
11320;DHT22;5715;48.234;14.320;2023-02-01T17:35:23;5.80;99.90
11320;DHT22;5715;48.234;14.320;2023-02-01T17:38:13;5.70;99.90
11320;DHT22;5715;48.234;14.320;2023-02-01T17:41:00;5.70;99.90
11320;DHT22;5715;48.234;14.320;2023-02-01T17:43:50;5.70;99.90
11320;DHT22;5715;48.234;14.320;2023-02-01T17:46:39;5.70;99.90
11320;DHT22;5715;48.234;14.320;2023-02-01T17:49:27;5.60;99.90
11320;DHT22;5715;48.234;14.320;2023-02-01T17:52:17;5.60;99.90
11320;DHT22;5715;48.234;14.320;2023-02-01T17:55:19;5.70;99.90
11320;DHT22;5715;48.234;14.320;2023-02-01T17:58:12;5.60;99.90
11320;DHT22;5715;48.234;14.320;2023-02-01T18:01:00;5.60;99.90
11320;DHT22;5715;48.234;14.320;2023-02-01T18:03:49;5.60;99.90
11320;DHT22;5715;48.234;14.320;2023-02-01T18:06:55;5.60;99.90
11320;DHT22;5715;48.234;14.320;2023-02-01T18:09:43;5.60;99.90
11320;DHT22;5715;48.234;14.320;2023-02-01T18:12:32;5.60;99.90
11320;DHT22;5715;48.234;14.320;2023-02-01T18:15:22;5.60;99.90
11320;DHT22;5715;48.234;14.320;2023-02-01T18:18:11;5.60;99.90
11320;DHT22;5715;48.234;14.320;2023-02-01T18:20:59;5.60;99.90
11320;DHT22;5715;48.234;14.320;2023-02-01T18:23:47;5.60;99.90
11320;DHT22;5715;48.234;14.320;2023-02-01T18:26:35;5.70;99.90
11320;DHT22;5715;48.234;14.320;2023-02-01T18:29:23;5.60;99.90
11320;DHT22;5715;48.234;14.320;2023-02-01T18:32:10;5.60;99.90
11320;DHT22;5715;48.234;14.320;2023-02-01T18:34:58;5.60;99.90
11320;DHT22;5715;48.234;14.320;2023-02-01T18:37:48;5.60;99.90
11320;DHT22;5715;48.234;14.320;2023-02-01T18:40:50;5.50;99.90
11320;DHT22;5715;48.234;14.320;2023-02-01T18:43:40;5.50;99.90
11320;DHT22;5715;48.234;14.320;2023-02-01T18:46:28;5.50;99.90
11320;DHT22;5715;48.234;14.320;2023-02-01T18:49:15;5.50;99.90
11320;DHT22;5715;48.234;14.320;2023-02-01T18:52:04;5.50;99.90
11320;DHT22;5715;48.234;14.320;2023-02-01T18:54:52;5.50;99.90
11320;DHT22;5715;48.234;14.320;2023-02-01T18:57:46;5.40;99.90
11320;DHT22;5715;48.234;14.320;2023-02-01T19:00:34;5.40;99.90
11320;DHT22;5715;48.234;14.320;2023-02-01T19:03:22;5.40;99.90
11320;DHT22;5715;48.234;14.320;2023-02-01T19:06:13;5.40;99.90
11320;DHT22;5715;48.234;14.320;2023-02-01T19:09:01;5.40;99.90
11320;DHT22;5715;48.234;14.320;2023-02-01T19:11:48;5.30;99.90
11320;DHT22;5715;48.234;14.320;2023-02-01T19:14:36;5.30;99.90
11320;DHT22;5715;48.234;14.320;2023-02-01T19:17:23;5.40;99.90
11320;DHT22;5715;48.234;14.320;2023-02-01T19:20:13;5.40;99.90
11320;DHT22;5715;48.234;14.320;2023-02-01T19:23:02;5.40;99.90
11320;DHT22;5715;48.234;14.320;2023-02-01T19:25:50;5.50;99.90
11320;DHT22;5715;48.234;14.320;2023-02-01T19:28:38;5.50;99.90
11320;DHT22;5715;48.234;14.320;2023-02-01T19:31:26;5.50;99.90
11320;DHT22;5715;48.234;14.320;2023-02-01T19:34:13;5.50;99.90
11320;DHT22;5715;48.234;14.320;2023-02-01T19:37:01;5.50;99.90
11320;DHT22;5715;48.234;14.320;2023-02-01T19:39:49;5.50;99.90
11320;DHT22;5715;48.234;14.320;2023-02-01T19:42:37;5.60;99.90
11320;DHT22;5715;48.234;14.320;2023-02-01T19:45:25;5.60;99.90
11320;DHT22;5715;48.234;14.320;2023-02-01T19:48:13;5.60;99.90
11320;DHT22;5715;48.234;14.320;2023-02-01T19:51:02;5.70;99.90
11320;DHT22;5715;48.234;14.320;2023-02-01T19:53:52;5.70;99.90
11320;DHT22;5715;48.234;14.320;2023-02-01T19:56:42;5.70;99.90
11320;DHT22;5715;48.234;14.320;2023-02-01T19:59:30;5.70;99.90
11320;DHT22;5715;48.234;14.320;2023-02-01T20:02:18;5.70;99.90
11320;DHT22;5715;48.234;14.320;2023-02-01T20:05:06;5.70;99.90
11320;DHT22;5715;48.234;14.320;2023-02-01T20:07:57;5.70;99.90
11320;DHT22;5715;48.234;14.320;2023-02-01T20:10:45;5.60;99.90
11320;DHT22;5715;48.234;14.320;2023-02-01T20:13:33;5.50;99.90
11320;DHT22;5715;48.234;14.320;2023-02-01T20:16:22;5.50;99.90